createdAt,value
2018-10-18T00:00:48.282Z,101141.55
2018-10-18T00:03:22.176Z,101139.41
2018-10-18T00:05:56.173Z,101139.89
2018-10-18T00:08:30.134Z,101141.62
2018-10-18T00:11:04.002Z,101138.63
2018-10-18T00:13:37.888Z,101146.32
2018-10-18T00:16:11.684Z,101140.00
2018-10-18T00:18:45.593Z,101146.42
2018-10-18T00:21:19.432Z,101149.44
2018-10-18T00:23:53.363Z,101144.35
2018-10-18T00:26:27.216Z,101142.69
2018-10-18T00:29:01.112Z,101142.30
2018-10-18T00:31:34.985Z,101146.21
2018-10-18T00:34:08.869Z,101144.58
2018-10-18T00:36:42.710Z,101140.80
2018-10-18T00:39:16.723Z,101143.86
2018-10-18T00:41:50.615Z,101150.27
2018-10-18T00:44:24.459Z,101149.84
2018-10-18T00:46:58.316Z,101150.67
2018-10-18T00:49:32.219Z,101155.84
2018-10-18T00:52:06.404Z,101154.12
2018-10-18T00:54:40.267Z,101158.81
2018-10-18T00:57:14.255Z,101161.31
2018-10-18T00:59:48.196Z,101170.67
2018-10-18T01:02:22.018Z,101171.84
2018-10-18T01:04:56.028Z,101164.50
2018-10-18T01:07:29.856Z,101168.34
2018-10-18T01:10:03.933Z,101162.30
2018-10-18T01:12:37.801Z,101163.09
2018-10-18T01:15:11.700Z,101162.65
2018-10-18T01:17:45.553Z,101163.03
2018-10-18T01:20:19.549Z,101163.37
2018-10-18T01:22:53.458Z,101164.59
2018-10-18T01:25:27.405Z,101165.81
2018-10-18T01:28:01.238Z,101164.44
2018-10-18T01:30:35.239Z,101167.78
2018-10-18T01:33:09.070Z,101173.18
2018-10-18T01:35:43.023Z,101174.74
2018-10-18T01:38:17.070Z,101176.30
2018-10-18T01:40:51.965Z,101176.67
2018-10-18T01:43:25.866Z,101176.98
2018-10-18T01:45:59.841Z,101176.36
2018-10-18T01:48:33.810Z,101179.25
2018-10-18T01:51:07.751Z,101176.04
2018-10-18T01:53:41.705Z,101178.42
2018-10-18T01:56:15.852Z,101177.37
2018-10-18T01:58:49.725Z,101173.39
2018-10-18T02:01:23.693Z,101171.89
2018-10-18T02:03:57.522Z,101171.12
2018-10-18T02:06:31.400Z,101166.47
2018-10-18T02:09:08.444Z,101173.06
2018-10-18T02:11:42.908Z,101171.41
2018-10-18T02:14:16.783Z,101175.72
2018-10-18T02:16:50.707Z,101169.44
2018-10-18T02:19:24.613Z,101171.95
2018-10-18T02:21:58.721Z,101179.66
2018-10-18T02:24:32.612Z,101179.30
2018-10-18T02:27:06.636Z,101180.27
2018-10-18T02:29:40.595Z,101179.45
2018-10-18T02:32:14.477Z,101180.05
2018-10-18T02:34:48.382Z,101180.13
2018-10-18T02:37:22.265Z,101182.87
2018-10-18T02:39:56.140Z,101184.39
2018-10-18T02:42:30.063Z,101185.84
2018-10-18T02:45:03.997Z,101186.06
2018-10-18T02:47:37.936Z,101188.45
2018-10-18T02:50:11.797Z,101183.03
2018-10-18T02:52:45.763Z,101179.91
2018-10-18T02:55:19.665Z,101184.31
2018-10-18T02:57:53.526Z,101188.08
2018-10-18T03:00:27.374Z,101182.44
2018-10-18T03:03:01.285Z,101181.33
2018-10-18T03:05:35.090Z,101180.64
2018-10-18T03:08:08.968Z,101183.11
2018-10-18T03:10:42.873Z,101177.40
2018-10-18T03:13:16.739Z,101182.97
2018-10-18T03:15:50.628Z,101190.30
2018-10-18T03:18:24.521Z,101188.12
2018-10-18T03:20:58.354Z,101193.60
2018-10-18T03:23:32.617Z,101193.88
2018-10-18T03:26:06.503Z,101194.72
2018-10-18T03:28:40.470Z,101196.70
2018-10-18T03:31:14.396Z,101196.70
2018-10-18T03:33:49.319Z,101194.86
2018-10-18T03:36:23.235Z,101195.14
2018-10-18T03:38:57.168Z,101197.65
2018-10-18T03:41:30.992Z,101202.08
2018-10-18T03:44:05.262Z,101201.52
2018-10-18T03:46:39.094Z,101204.34
2018-10-18T03:49:13.023Z,101210.79
2018-10-18T03:51:46.948Z,101206.01
2018-10-18T03:54:20.908Z,101206.78
2018-10-18T03:56:54.989Z,101204.61
2018-10-18T03:59:28.897Z,101205.84
2018-10-18T04:02:02.713Z,101206.11
2018-10-18T04:04:36.646Z,101210.09
2018-10-18T04:07:10.749Z,101219.02
2018-10-18T04:09:44.640Z,101217.34
2018-10-18T04:12:18.571Z,101219.92
2018-10-18T04:14:52.395Z,101221.56
2018-10-18T04:17:26.197Z,101227.17
2018-10-18T04:20:00.153Z,101222.22
2018-10-18T04:22:33.967Z,101222.28
2018-10-18T04:25:08.253Z,101220.47
2018-10-18T04:27:42.090Z,101225.14
2018-10-18T04:30:16.002Z,101224.52
2018-10-18T04:32:49.816Z,101227.09
2018-10-18T04:35:23.687Z,101233.44
2018-10-18T04:37:57.624Z,101225.25
2018-10-18T04:40:31.497Z,101220.50
2018-10-18T04:43:05.735Z,101221.27
2018-10-18T04:45:39.699Z,101226.31
2018-10-18T04:48:13.939Z,101218.02
2018-10-18T04:50:47.772Z,101216.69
2018-10-18T04:53:21.636Z,101219.65
2018-10-18T04:55:56.068Z,101225.27
2018-10-18T04:58:29.850Z,101223.45
2018-10-18T05:01:03.782Z,101228.57
2018-10-18T05:03:37.609Z,101232.48
2018-10-18T05:06:11.516Z,101229.03
2018-10-18T05:08:45.343Z,101227.77
2018-10-18T05:11:19.243Z,101229.14
2018-10-18T05:13:53.065Z,101232.09
2018-10-18T05:16:26.935Z,101236.42
2018-10-18T05:19:00.801Z,101240.23
2018-10-18T05:21:34.658Z,101238.06
2018-10-18T05:24:08.604Z,101239.77
2018-10-18T05:26:42.520Z,101236.42
2018-10-18T05:29:16.422Z,101238.94
2018-10-18T05:31:50.472Z,101238.45
2018-10-18T05:34:24.304Z,101242.31
2018-10-18T05:36:58.304Z,101239.66
2018-10-18T05:39:32.109Z,101237.50
2018-10-18T05:42:06.046Z,101238.22
2018-10-18T05:44:39.874Z,101241.08
2018-10-18T05:47:13.951Z,101242.75
2018-10-18T05:49:47.753Z,101253.87
2018-10-18T05:52:21.749Z,101245.23
2018-10-18T05:54:55.811Z,101247.28
2018-10-18T05:57:29.685Z,101245.50
2018-10-18T06:00:03.716Z,101240.78
2018-10-18T06:02:37.856Z,101240.29
2018-10-18T06:05:13.132Z,101248.80
2018-10-18T06:07:47.222Z,101257.73
2018-10-18T06:10:32.281Z,101267.98
2018-10-18T06:13:06.228Z,101264.45
2018-10-18T06:15:40.131Z,101268.41
2018-10-18T06:18:14.124Z,101273.11
2018-10-18T06:20:48.025Z,101273.95
2018-10-18T06:23:22.037Z,101275.58
2018-10-18T06:25:55.972Z,101289.72
2018-10-18T06:28:29.953Z,101284.94
2018-10-18T06:31:03.984Z,101288.31
2018-10-18T06:33:37.953Z,101291.17
2018-10-18T06:36:12.094Z,101290.71
2018-10-18T06:38:45.987Z,101291.05
2018-10-18T06:41:19.869Z,101299.26
2018-10-18T06:43:53.767Z,101303.48
2018-10-18T06:46:27.651Z,101308.64
2018-10-18T06:49:01.659Z,101305.27
2018-10-18T06:51:35.494Z,101313.39
2018-10-18T06:54:09.648Z,101307.45
2018-10-18T06:56:43.516Z,101307.03
2018-10-18T06:59:17.426Z,101310.91
2018-10-18T07:01:51.320Z,101312.95
2018-10-18T07:04:25.197Z,101318.87
2018-10-18T07:06:59.107Z,101322.84
2018-10-18T07:09:33.165Z,101323.27
2018-10-18T07:12:07.466Z,101329.34
2018-10-18T07:14:41.318Z,101338.10
2018-10-18T07:17:15.604Z,101333.95
2018-10-18T07:19:50.034Z,101341.97
2018-10-18T07:22:23.930Z,101343.75
2018-10-18T07:24:57.847Z,101340.12
2018-10-18T07:27:31.833Z,101346.19
2018-10-18T07:30:07.413Z,101340.95
2018-10-18T07:32:41.339Z,101345.67
2018-10-18T07:35:15.521Z,101338.00
2018-10-18T07:37:49.612Z,101339.18
2018-10-18T07:40:23.552Z,101350.17
2018-10-18T07:42:57.444Z,101353.27
2018-10-18T07:45:31.424Z,101348.59
2018-10-18T07:48:05.704Z,101347.45
2018-10-18T07:50:39.590Z,101345.63
2018-10-18T07:53:13.631Z,101344.16
2018-10-18T07:55:47.691Z,101345.87
2018-10-18T07:58:21.565Z,101340.98
2018-10-18T08:00:55.592Z,101352.39
2018-10-18T08:03:31.063Z,101361.81
2018-10-18T08:06:05.188Z,101356.02
2018-10-18T08:08:39.065Z,101357.54
2018-10-18T08:11:13.639Z,101360.28
2018-10-18T08:13:47.541Z,101366.28
2018-10-18T08:16:21.480Z,101369.03
2018-10-18T08:18:55.402Z,101371.16
2018-10-18T08:21:29.337Z,101368.16
2018-10-18T08:24:03.255Z,101367.71
2018-10-18T08:26:37.229Z,101364.22
2018-10-18T08:29:11.125Z,101362.51
2018-10-18T08:31:45.165Z,101354.59
2018-10-18T08:34:19.465Z,101363.92
2018-10-18T08:36:53.614Z,101363.03
2018-10-18T08:39:27.512Z,101364.12
2018-10-18T08:42:01.481Z,101367.38
2018-10-18T08:44:35.509Z,101367.30
2018-10-18T08:47:09.528Z,101360.00
2018-10-18T08:49:43.514Z,101367.12
2018-10-18T08:52:17.450Z,101361.54
2018-10-18T08:54:51.330Z,101365.83
2018-10-18T08:57:25.258Z,101359.36
2018-10-18T08:59:59.137Z,101364.27
2018-10-18T09:02:33.103Z,101360.42
2018-10-18T09:05:07.482Z,101356.16
2018-10-18T09:07:41.421Z,101361.27
2018-10-18T09:10:15.456Z,101362.96
2018-10-18T09:12:49.369Z,101362.75
2018-10-18T09:15:23.257Z,101365.21
2018-10-18T09:17:57.298Z,101368.90
2018-10-18T09:20:31.213Z,101373.32
2018-10-18T09:23:05.311Z,101368.91
2018-10-18T09:25:39.144Z,101380.55
2018-10-18T09:28:13.036Z,101385.55
2018-10-18T09:30:46.896Z,101391.95
2018-10-18T09:33:20.878Z,101389.05
2018-10-18T09:35:54.713Z,101383.66
2018-10-18T09:38:28.640Z,101391.34
2018-10-18T09:41:02.572Z,101395.63
2018-10-18T09:43:36.492Z,101395.22
2018-10-18T09:46:10.387Z,101388.78
2018-10-18T09:48:44.318Z,101396.09
2018-10-18T09:51:18.173Z,101393.64
2018-10-18T09:53:52.111Z,101392.34
2018-10-18T09:56:26.116Z,101390.22
2018-10-18T09:59:00.013Z,101395.55
2018-10-18T10:01:39.006Z,101390.64
2018-10-18T10:04:12.948Z,101393.82
2018-10-18T10:06:46.821Z,101399.91
2018-10-18T10:09:20.801Z,101404.11
2018-10-18T10:11:54.652Z,101406.75
2018-10-18T10:14:28.654Z,101404.70
2018-10-18T10:17:02.566Z,101399.46
2018-10-18T10:19:36.491Z,101393.81
2018-10-18T10:22:10.378Z,101395.72
2018-10-18T10:24:44.339Z,101399.71
2018-10-18T10:27:18.236Z,101396.88
2018-10-18T10:29:52.125Z,101397.50
2018-10-18T10:32:26.000Z,101395.13
2018-10-18T10:34:59.922Z,101400.02
2018-10-18T10:37:33.866Z,101401.28
2018-10-18T10:40:09.140Z,101395.09
2018-10-18T10:42:43.261Z,101398.56
2018-10-18T10:45:17.442Z,101397.37
2018-10-18T10:47:52.078Z,101402.92
2018-10-18T10:50:25.999Z,101398.23
2018-10-18T10:52:59.845Z,101403.43
2018-10-18T10:55:33.744Z,101400.19
2018-10-18T10:58:07.914Z,101406.13
2018-10-18T11:01:15.783Z,101404.31
2018-10-18T11:03:51.146Z,101405.47
2018-10-18T11:06:25.290Z,101404.23
2018-10-18T11:08:59.172Z,101402.55
2018-10-18T11:11:33.064Z,101406.57
2018-10-18T11:14:07.033Z,101402.85
2018-10-18T11:16:40.970Z,101405.72
2018-10-18T11:19:15.870Z,101405.83
2018-10-18T11:21:49.972Z,101404.71
2018-10-18T11:24:23.797Z,101409.30
2018-10-18T11:26:57.811Z,101406.01
2018-10-18T11:29:31.683Z,101402.31
2018-10-18T11:32:05.891Z,101391.58
2018-10-18T11:34:39.802Z,101394.64
2018-10-18T11:37:13.750Z,101395.55
2018-10-18T11:39:47.635Z,101400.66
2018-10-18T11:42:21.805Z,101396.63
2018-10-18T11:44:55.588Z,101395.72
2018-10-18T11:47:29.596Z,101395.91
2018-10-18T11:50:03.480Z,101393.69
2018-10-18T11:52:37.483Z,101389.72
2018-10-18T11:55:11.441Z,101385.52
2018-10-18T11:57:45.638Z,101382.69
2018-10-18T12:00:20.144Z,101381.62
2018-10-18T12:02:54.140Z,101379.40
2018-10-18T12:05:28.077Z,101388.38
2018-10-18T12:08:02.114Z,101382.87
2018-10-18T12:10:35.988Z,101388.84
2018-10-18T12:13:09.993Z,101389.59
2018-10-18T12:15:43.867Z,101393.48
2018-10-18T12:18:17.764Z,101396.67
2018-10-18T12:20:51.645Z,101401.34
2018-10-18T12:23:25.531Z,101397.05
2018-10-18T12:25:59.399Z,101399.13
2018-10-18T12:28:33.341Z,101404.09
2018-10-18T12:31:07.320Z,101401.91
2018-10-18T12:33:41.200Z,101402.83
2018-10-18T12:36:15.091Z,101409.55
2018-10-18T12:38:49.085Z,101406.68
2018-10-18T12:41:25.321Z,101406.68
2018-10-18T12:43:59.252Z,101403.16
2018-10-18T12:46:33.136Z,101401.82
2018-10-18T12:49:07.090Z,101399.55
2018-10-18T12:51:41.030Z,101398.25
2018-10-18T12:54:15.031Z,101402.92
2018-10-18T12:56:48.988Z,101398.08
2018-10-18T12:59:23.430Z,101401.22
2018-10-18T13:01:57.426Z,101401.91
2018-10-18T13:04:31.352Z,101398.33
2018-10-18T13:07:05.539Z,101397.20
2018-10-18T13:09:39.529Z,101405.52
2018-10-18T13:12:13.554Z,101400.98
2018-10-18T13:14:47.643Z,101404.37
2018-10-18T13:18:08.602Z,101402.44
2018-10-18T13:20:43.685Z,101401.34
2018-10-18T13:23:17.621Z,101403.70
2018-10-18T13:25:53.574Z,101407.73
2018-10-18T13:29:07.884Z,101404.97
2018-10-18T13:31:42.568Z,101404.50
2018-10-18T13:34:16.537Z,101409.45
2018-10-18T13:36:50.477Z,101400.75
2018-10-18T13:39:24.420Z,101405.80
2018-10-18T13:41:58.449Z,101395.84
2018-10-18T13:44:32.349Z,101407.74
2018-10-18T13:47:06.462Z,101402.78
2018-10-18T13:49:40.374Z,101403.94
2018-10-18T13:52:14.324Z,101407.74
2018-10-18T13:54:48.213Z,101412.14
2018-10-18T13:57:22.292Z,101414.45
2018-10-18T14:00:28.684Z,101418.34
2018-10-18T14:03:02.676Z,101411.77
2018-10-18T14:05:36.678Z,101409.69
2018-10-18T14:08:10.708Z,101410.75
2018-10-18T14:10:44.561Z,101412.19
2018-10-18T14:13:18.496Z,101414.53
2018-10-18T14:15:52.384Z,101410.36
2018-10-18T14:18:26.293Z,101417.73
2018-10-18T14:21:00.198Z,101413.09
2018-10-18T14:23:34.242Z,101417.44
2018-10-18T14:26:08.270Z,101419.84
2018-10-18T14:28:42.067Z,101419.16
2018-10-18T14:31:16.133Z,101423.49
2018-10-18T14:33:50.153Z,101421.58
2018-10-18T14:36:24.039Z,101423.64
2018-10-18T14:38:58.342Z,101415.88
2018-10-18T14:41:32.237Z,101426.66
2018-10-18T14:44:06.540Z,101427.36
2018-10-18T14:46:40.425Z,101432.92
2018-10-18T14:49:14.310Z,101429.62
2018-10-18T14:51:48.210Z,101432.45
2018-10-18T14:54:22.153Z,101435.16
2018-10-18T14:56:56.015Z,101436.16
2018-10-18T14:59:30.077Z,101432.45
2018-10-18T15:02:04.173Z,101440.03
2018-10-18T15:04:38.432Z,101439.23
2018-10-18T15:07:12.244Z,101439.23
2018-10-18T15:09:46.181Z,101442.28
2018-10-18T15:12:20.059Z,101442.09
2018-10-18T15:14:53.989Z,101446.67
2018-10-18T15:17:27.851Z,101440.79
2018-10-18T15:20:03.839Z,101439.50
2018-10-18T15:22:47.189Z,101453.39
2018-10-18T15:25:21.373Z,101453.53
2018-10-18T15:27:55.207Z,101451.78
2018-10-18T15:30:29.152Z,101454.95
2018-10-18T15:33:03.101Z,101457.08
2018-10-18T15:35:37.029Z,101457.00
2018-10-18T15:38:11.116Z,101463.39
2018-10-18T15:40:44.979Z,101463.85
2018-10-18T15:43:19.068Z,101473.56
2018-10-18T15:45:52.957Z,101466.91
2018-10-18T15:48:26.970Z,101478.38
2018-10-18T15:51:03.129Z,101477.34
2018-10-18T15:53:37.237Z,101483.11
2018-10-18T15:56:23.895Z,101482.94
2018-10-18T15:58:57.949Z,101481.54
2018-10-18T16:01:32.050Z,101481.26
2018-10-18T16:04:06.868Z,101490.38
2018-10-18T16:06:41.269Z,101500.63
2018-10-18T16:09:15.793Z,101508.13
2018-10-18T16:11:50.946Z,101508.47
2018-10-18T16:14:24.908Z,101504.89
2018-10-18T16:16:59.002Z,101509.02
2018-10-18T16:19:33.072Z,101511.19
2018-10-18T16:22:07.368Z,101520.38
2018-10-18T16:24:41.384Z,101527.74
2018-10-18T16:27:16.436Z,101528.73
2018-10-18T16:29:50.629Z,101530.12
2018-10-18T16:32:24.615Z,101530.52
2018-10-18T16:34:59.115Z,101536.58
2018-10-18T16:37:33.188Z,101547.74
2018-10-18T16:40:07.622Z,101546.52
2018-10-18T16:42:41.779Z,101545.32
2018-10-18T16:45:15.675Z,101546.16
2018-10-18T16:47:49.664Z,101543.61
2018-10-18T16:50:23.651Z,101544.16
2018-10-18T16:52:57.629Z,101546.41
2018-10-18T16:55:31.580Z,101551.15
2018-10-18T16:58:05.694Z,101549.92
2018-10-18T17:00:39.536Z,101546.98
2018-10-18T17:03:13.554Z,101549.27
2018-10-18T17:05:47.554Z,101551.16
2018-10-18T17:08:21.572Z,101555.95
2018-10-18T17:10:56.323Z,101557.34
2018-10-18T17:13:30.280Z,101566.91
2018-10-18T17:16:04.277Z,101566.16
2018-10-18T17:18:38.485Z,101567.08
2018-10-18T17:21:12.514Z,101569.66
2018-10-18T17:23:46.606Z,101572.30
2018-10-18T17:26:20.618Z,101574.04
2018-10-18T17:28:54.535Z,101586.55
2018-10-18T17:31:28.845Z,101582.82
2018-10-18T17:34:02.929Z,101581.56
2018-10-18T17:36:36.811Z,101584.22
2018-10-18T17:39:11.573Z,101589.05
2018-10-18T17:41:45.471Z,101589.21
2018-10-18T17:44:19.374Z,101591.48
2018-10-18T17:46:53.334Z,101586.50
2018-10-18T17:49:27.516Z,101588.34
2018-10-18T17:52:02.116Z,101589.82
2018-10-18T17:54:36.046Z,101596.50
2018-10-18T17:57:10.173Z,101597.17
2018-10-18T17:59:44.205Z,101599.84
2018-10-18T18:02:18.341Z,101599.20
2018-10-18T18:04:53.947Z,101605.39
2018-10-18T18:07:28.108Z,101609.41
2018-10-18T18:10:02.387Z,101608.27
2018-10-18T18:12:36.556Z,101615.70
2018-10-18T18:15:10.965Z,101617.23
2018-10-18T18:17:44.884Z,101617.81
2018-10-18T18:20:18.796Z,101620.17
2018-10-18T18:22:53.002Z,101621.20
2018-10-18T18:25:26.920Z,101624.31
2018-10-18T18:28:00.749Z,101623.66
2018-10-18T18:30:34.657Z,101626.45
2018-10-18T18:33:08.537Z,101623.19
2018-10-18T18:35:42.461Z,101631.92
2018-10-18T18:38:16.296Z,101637.64
2018-10-18T18:40:50.216Z,101639.03
2018-10-18T18:43:24.108Z,101638.75
2018-10-18T18:45:58.113Z,101644.91
2018-10-18T18:48:31.952Z,101652.39
2018-10-18T18:51:05.934Z,101659.38
2018-10-18T18:53:39.784Z,101664.28
2018-10-18T18:56:13.768Z,101667.86
2018-10-18T18:58:47.611Z,101670.14
2018-10-18T19:01:21.770Z,101678.89
2018-10-18T19:03:55.650Z,101676.02
2018-10-18T19:06:29.565Z,101676.95
2018-10-18T19:09:03.655Z,101677.09
2018-10-18T19:11:38.498Z,101681.09
2018-10-18T19:14:12.461Z,101681.22
2018-10-18T19:16:46.511Z,101683.95
2018-10-18T19:19:20.352Z,101679.80
2018-10-18T19:21:54.358Z,101685.45
2018-10-18T19:24:28.218Z,101684.69
2018-10-18T19:27:02.312Z,101683.01
2018-10-18T19:29:36.273Z,101686.50
2018-10-18T19:32:10.324Z,101683.17
2018-10-18T19:34:44.476Z,101689.30
2018-10-18T19:37:18.473Z,101687.72
2018-10-18T19:39:52.367Z,101690.77
2018-10-18T19:42:26.323Z,101686.98
2018-10-18T19:45:00.221Z,101686.22
2018-10-18T19:47:34.115Z,101687.56
2018-10-18T19:50:09.017Z,101685.54
2018-10-18T19:52:42.946Z,101695.42
2018-10-18T19:55:16.750Z,101698.46
2018-10-18T19:57:50.660Z,101701.95
2018-10-18T20:00:24.517Z,101703.73
2018-10-18T20:02:58.406Z,101706.36
2018-10-18T20:05:32.232Z,101701.73
2018-10-18T20:08:06.194Z,101703.50
2018-10-18T20:10:39.975Z,101705.28
2018-10-18T20:13:13.830Z,101709.61
2018-10-18T20:15:47.834Z,101708.37
2018-10-18T20:18:21.843Z,101707.14
2018-10-18T20:20:55.627Z,101710.19
2018-10-18T20:23:30.085Z,101706.41
2018-10-18T20:26:04.206Z,101708.13
2018-10-18T20:28:37.964Z,101710.80
2018-10-18T20:31:11.855Z,101708.69
2018-10-18T20:33:45.696Z,101712.53
2018-10-18T20:36:19.550Z,101716.42
2018-10-18T20:38:53.472Z,101717.28
2018-10-18T20:41:28.025Z,101717.31
2018-10-18T20:44:01.894Z,101712.63
2018-10-18T20:46:35.814Z,101719.47
2018-10-18T20:49:09.673Z,101713.92
2018-10-18T20:51:46.473Z,101714.38
2018-10-18T20:54:20.435Z,101716.59
2018-10-18T20:56:54.255Z,101719.16
2018-10-18T20:59:28.142Z,101716.22
2018-10-18T21:02:03.060Z,101725.23
2018-10-18T21:04:36.910Z,101725.70
2018-10-18T21:07:10.702Z,101719.78
2018-10-18T21:09:44.560Z,101720.63
2018-10-18T21:12:18.407Z,101714.67
2018-10-18T21:14:52.364Z,101718.52
2018-10-18T21:17:26.204Z,101725.81
2018-10-18T21:20:00.153Z,101728.83
2018-10-18T21:22:34.005Z,101726.70
2018-10-18T21:25:08.108Z,101729.27
2018-10-18T21:27:41.981Z,101728.03
2018-10-18T21:30:15.958Z,101729.73
2018-10-18T21:32:49.795Z,101734.44
2018-10-18T21:35:23.681Z,101730.19
2018-10-18T21:37:57.619Z,101725.06
2018-10-18T21:40:31.508Z,101723.79
2018-10-18T21:43:05.495Z,101720.82
2018-10-18T21:45:39.465Z,101726.78
2018-10-18T21:48:13.424Z,101730.62
2018-10-18T21:50:47.306Z,101717.86
2018-10-18T21:53:21.161Z,101720.02
2018-10-18T21:55:55.136Z,101718.32
2018-10-18T21:58:28.954Z,101731.09
2018-10-18T22:01:03.136Z,101728.12
2018-10-18T22:03:36.999Z,101731.95
2018-10-18T22:06:10.878Z,101736.64
2018-10-18T22:08:44.726Z,101730.25
2018-10-18T22:11:18.681Z,101735.73
2018-10-18T22:13:52.521Z,101723.84
2018-10-18T22:16:26.411Z,101732.77
2018-10-18T22:19:00.289Z,101734.89
2018-10-18T22:21:34.128Z,101728.49
2018-10-18T22:24:09.204Z,101732.75
2018-10-18T22:26:43.053Z,101734.02
2018-10-18T22:29:16.968Z,101731.91
2018-10-18T22:31:50.875Z,101729.75
2018-10-18T22:34:24.705Z,101732.30
2018-10-18T22:36:58.626Z,101727.63
2018-10-18T22:39:32.547Z,101729.33
2018-10-18T22:42:06.762Z,101733.98
2018-10-18T22:44:40.706Z,101730.12
2018-10-18T22:47:14.745Z,101730.12
2018-10-18T22:49:48.608Z,101731.83
2018-10-18T22:52:22.545Z,101730.53
2018-10-18T22:54:56.494Z,101733.52
2018-10-18T22:57:30.493Z,101726.28
2018-10-18T23:00:04.702Z,101726.29
2018-10-18T23:02:38.775Z,101730.52
2018-10-18T23:05:12.706Z,101724.97
2018-10-18T23:07:46.629Z,101730.06
2018-10-18T23:10:20.518Z,101728.80
2018-10-18T23:12:54.369Z,101731.76
2018-10-18T23:15:28.213Z,101721.55
2018-10-18T23:18:02.097Z,101727.46
2018-10-18T23:20:35.938Z,101737.67
2018-10-18T23:23:10.508Z,101731.69
2018-10-18T23:25:44.376Z,101732.10
2018-10-18T23:28:18.347Z,101730.77
2018-10-18T23:30:52.160Z,101728.20
2018-10-18T23:33:26.077Z,101728.61
2018-10-18T23:35:59.909Z,101722.22
2018-10-18T23:38:33.797Z,101727.73
2018-10-18T23:41:07.922Z,101723.06
2018-10-18T23:43:41.813Z,101721.77
2018-10-18T23:46:15.678Z,101720.03
2018-10-18T23:48:49.523Z,101712.34
2018-10-18T23:51:23.349Z,101722.52
2018-10-18T23:53:57.238Z,101719.92
2018-10-18T23:56:31.143Z,101709.29
2018-10-18T23:59:05.131Z,101716.51
